KFSI/FSI METAR and TAF weather

Enter ICAO airport designator
Station Type Date Time Source
KFSI METAR 2022/07/01 01:56 UTC NOAA

KFSI 010156Z AUTO 15006KT 10SM CLR 30/13 A2988 RMK AO2 SLP108 T03040132


Station Type Date Time Source
KFSI Decoded METAR 2022/07/01 01:56 UTC NOAA

Fort Sill, OK, United States (KFSI) 34-36N 098-24W 360M
Jun 30, 2022 - 09:56 PM EDT / 2022.07.01 0156 UTC
Wind: from the SSE (150 degrees) at 7 MPH (6 KT):0
Visibility: 10 mile(s):0
Sky conditions: clear
Temperature: 86.7 F (30.4 C)
Dew Point: 55.8 F (13.2 C)
Relative Humidity: 34%
Pressure (altimeter): 29.88 in. Hg (1011 hPa)
ob: KFSI 010156Z AUTO 15006KT 10SM CLR 30/13 A2988 RMK AO2 SLP108 T03040132
cycle: 2

Station Type Date Time Source
KFSI TAF 2020/11/03 14:12 UTC NOAA

TAF KFSI 031400Z 0314/0420 19009KT 9999 SKC QNH3019INS TX19/0320Z TN04/0410Z

Example: see airport list